sensor_id;sensor_type;location;lat;lon;timestamp;temperature;humidity
5675;DHT22;2860;54.284;10.158;2023-12-07T00:00:17;0.30;99.90
5675;DHT22;2860;54.284;10.158;2023-12-07T00:02:42;0.30;99.90
5675;DHT22;2860;54.284;10.158;2023-12-07T00:05:08;0.30;99.90
5675;DHT22;2860;54.284;10.158;2023-12-07T00:07:33;0.20;99.90
5675;DHT22;2860;54.284;10.158;2023-12-07T00:09:59;0.30;99.90
5675;DHT22;2860;54.284;10.158;2023-12-07T00:12:24;0.20;99.90
5675;DHT22;2860;54.284;10.158;2023-12-07T00:14:50;0.20;99.90
5675;DHT22;2860;54.284;10.158;2023-12-07T00:17:15;0.20;99.90
5675;DHT22;2860;54.284;10.158;2023-12-07T00:19:41;0.20;99.90
5675;DHT22;2860;54.284;10.158;2023-12-07T00:22:06;0.20;99.90
5675;DHT22;2860;54.284;10.158;2023-12-07T00:24:32;0.30;99.90
5675;DHT22;2860;54.284;10.158;2023-12-07T00:26:58;0.20;99.90
5675;DHT22;2860;54.284;10.158;2023-12-07T00:29:23;0.20;99.90
5675;DHT22;2860;54.284;10.158;2023-12-07T00:31:48;0.20;99.90
5675;DHT22;2860;54.284;10.158;2023-12-07T00:34:14;0.20;99.90
5675;DHT22;2860;54.284;10.158;2023-12-07T00:36:39;0.20;99.90
5675;DHT22;2860;54.284;10.158;2023-12-07T00:39:06;0.20;99.90
5675;DHT22;2860;54.284;10.158;2023-12-07T00:41:32;0.20;99.90
5675;DHT22;2860;54.284;10.158;2023-12-07T00:43:57;0.20;99.90
5675;DHT22;2860;54.284;10.158;2023-12-07T00:46:23;0.20;99.90
5675;DHT22;2860;54.284;10.158;2023-12-07T00:48:48;0.20;99.90
5675;DHT22;2860;54.284;10.158;2023-12-07T00:51:14;0.20;99.90
5675;DHT22;2860;54.284;10.158;2023-12-07T00:53:41;0.20;99.90
5675;DHT22;2860;54.284;10.158;2023-12-07T00:56:06;0.20;99.90
5675;DHT22;2860;54.284;10.158;2023-12-07T00:58:32;0.20;99.90
5675;DHT22;2860;54.284;10.158;2023-12-07T01:00:58;0.30;99.90
5675;DHT22;2860;54.284;10.158;2023-12-07T01:03:23;0.20;99.90
5675;DHT22;2860;54.284;10.158;2023-12-07T01:05:49;0.30;99.90
5675;DHT22;2860;54.284;10.158;2023-12-07T01:08:14;0.30;99.90
5675;DHT22;2860;54.284;10.158;2023-12-07T01:10:40;0.30;99.90
5675;DHT22;2860;54.284;10.158;2023-12-07T01:13:05;0.20;99.90
5675;DHT22;2860;54.284;10.158;2023-12-07T01:15:31;0.20;99.90
5675;DHT22;2860;54.284;10.158;2023-12-07T01:17:56;0.20;99.90
5675;DHT22;2860;54.284;10.158;2023-12-07T01:20:22;0.30;99.90
5675;DHT22;2860;54.284;10.158;2023-12-07T01:22:47;0.30;99.90
5675;DHT22;2860;54.284;10.158;2023-12-07T01:25:13;0.30;99.90
5675;DHT22;2860;54.284;10.158;2023-12-07T01:27:42;0.30;99.90
5675;DHT22;2860;54.284;10.158;2023-12-07T01:30:08;0.30;99.90
5675;DHT22;2860;54.284;10.158;2023-12-07T01:32:33;0.30;99.90
5675;DHT22;2860;54.284;10.158;2023-12-07T01:34:59;0.30;99.90
5675;DHT22;2860;54.284;10.158;2023-12-07T01:37:25;0.30;99.90
5675;DHT22;2860;54.284;10.158;2023-12-07T01:39:50;0.30;99.90
5675;DHT22;2860;54.284;10.158;2023-12-07T01:42:16;0.30;99.90
5675;DHT22;2860;54.284;10.158;2023-12-07T01:44:41;0.30;99.90
5675;DHT22;2860;54.284;10.158;2023-12-07T01:47:07;0.30;99.90
5675;DHT22;2860;54.284;10.158;2023-12-07T01:49:34;0.30;99.90
5675;DHT22;2860;54.284;10.158;2023-12-07T01:52:00;0.30;99.90
5675;DHT22;2860;54.284;10.158;2023-12-07T01:54:26;0.30;99.90
5675;DHT22;2860;54.284;10.158;2023-12-07T01:56:52;0.30;99.90
5675;DHT22;2860;54.284;10.158;2023-12-07T01:59:17;0.30;99.90
5675;DHT22;2860;54.284;10.158;2023-12-07T02:01:43;0.30;99.90
5675;DHT22;2860;54.284;10.158;2023-12-07T02:04:10;0.30;99.90
5675;DHT22;2860;54.284;10.158;2023-12-07T02:06:35;0.30;99.90
5675;DHT22;2860;54.284;10.158;2023-12-07T02:09:02;0.30;99.90
5675;DHT22;2860;54.284;10.158;2023-12-07T02:11:28;0.20;99.90
5675;DHT22;2860;54.284;10.158;2023-12-07T02:13:54;0.20;99.90
5675;DHT22;2860;54.284;10.158;2023-12-07T02:16:50;0.20;99.90
5675;DHT22;2860;54.284;10.158;2023-12-07T02:19:49;0.20;99.90
5675;DHT22;2860;54.284;10.158;2023-12-07T02:22:25;0.20;99.90
5675;DHT22;2860;54.284;10.158;2023-12-07T02:25:23;0.20;99.90
5675;DHT22;2860;54.284;10.158;2023-12-07T02:27:49;0.20;99.90
5675;DHT22;2860;54.284;10.158;2023-12-07T02:30:15;0.20;99.90
5675;DHT22;2860;54.284;10.158;2023-12-07T02:32:42;0.20;99.90
5675;DHT22;2860;54.284;10.158;2023-12-07T02:35:09;0.20;99.90
5675;DHT22;2860;54.284;10.158;2023-12-07T02:37:45;0.20;99.90
5675;DHT22;2860;54.284;10.158;2023-12-07T02:40:12;0.20;99.90
5675;DHT22;2860;54.284;10.158;2023-12-07T02:42:40;0.20;99.90
5675;DHT22;2860;54.284;10.158;2023-12-07T02:45:09;0.20;99.90
5675;DHT22;2860;54.284;10.158;2023-12-07T02:47:35;0.20;99.90
5675;DHT22;2860;54.284;10.158;2023-12-07T02:50:02;0.30;99.90
5675;DHT22;2860;54.284;10.158;2023-12-07T02:52:27;0.20;99.90
5675;DHT22;2860;54.284;10.158;2023-12-07T02:54:54;0.30;99.90
5675;DHT22;2860;54.284;10.158;2023-12-07T02:57:19;0.30;99.90
5675;DHT22;2860;54.284;10.158;2023-12-07T02:59:45;0.30;99.90
5675;DHT22;2860;54.284;10.158;2023-12-07T03:02:10;0.30;99.90
5675;DHT22;2860;54.284;10.158;2023-12-07T03:04:36;0.30;99.90
5675;DHT22;2860;54.284;10.158;2023-12-07T03:07:01;0.30;99.90
5675;DHT22;2860;54.284;10.158;2023-12-07T03:09:27;0.20;99.90
5675;DHT22;2860;54.284;10.158;2023-12-07T03:11:52;0.30;99.90
5675;DHT22;2860;54.284;10.158;2023-12-07T03:14:18;0.20;99.90
5675;DHT22;2860;54.284;10.158;2023-12-07T03:16:45;0.30;99.90
5675;DHT22;2860;54.284;10.158;2023-12-07T03:19:10;0.20;99.90
5675;DHT22;2860;54.284;10.158;2023-12-07T03:21:39;0.20;99.90
5675;DHT22;2860;54.284;10.158;2023-12-07T03:24:06;0.30;99.90
5675;DHT22;2860;54.284;10.158;2023-12-07T03:26:33;0.30;99.90
5675;DHT22;2860;54.284;10.158;2023-12-07T03:28:59;0.30;99.90
5675;DHT22;2860;54.284;10.158;2023-12-07T03:31:24;0.30;99.90
5675;DHT22;2860;54.284;10.158;2023-12-07T03:33:50;0.30;99.90
5675;DHT22;2860;54.284;10.158;2023-12-07T03:36:15;0.30;99.90
5675;DHT22;2860;54.284;10.158;2023-12-07T03:38:41;0.30;99.90
5675;DHT22;2860;54.284;10.158;2023-12-07T03:41:06;0.30;99.90
5675;DHT22;2860;54.284;10.158;2023-12-07T03:43:32;0.30;99.90
5675;DHT22;2860;54.284;10.158;2023-12-07T03:45:57;0.30;99.90
5675;DHT22;2860;54.284;10.158;2023-12-07T03:48:22;0.30;99.90
5675;DHT22;2860;54.284;10.158;2023-12-07T03:50:48;0.30;99.90
5675;DHT22;2860;54.284;10.158;2023-12-07T03:53:13;0.30;99.90
5675;DHT22;2860;54.284;10.158;2023-12-07T03:55:39;0.30;99.90
5675;DHT22;2860;54.284;10.158;2023-12-07T03:58:05;0.30;99.90
5675;DHT22;2860;54.284;10.158;2023-12-07T04:00:32;0.30;99.90
5675;DHT22;2860;54.284;10.158;2023-12-07T04:02:58;0.30;99.90
5675;DHT22;2860;54.284;10.158;2023-12-07T04:05:23;0.30;99.90
5675;DHT22;2860;54.284;10.158;2023-12-07T04:07:49;0.30;99.90
5675;DHT22;2860;54.284;10.158;2023-12-07T04:10:14;0.30;99.90
5675;DHT22;2860;54.284;10.158;2023-12-07T04:12:40;0.30;99.90
5675;DHT22;2860;54.284;10.158;2023-12-07T04:15:06;0.30;99.90
5675;DHT22;2860;54.284;10.158;2023-12-07T04:17:32;0.30;99.90
5675;DHT22;2860;54.284;10.158;2023-12-07T04:19:57;0.30;99.90
5675;DHT22;2860;54.284;10.158;2023-12-07T04:22:23;0.30;99.90
5675;DHT22;2860;54.284;10.158;2023-12-07T04:24:48;0.30;99.90
5675;DHT22;2860;54.284;10.158;2023-12-07T04:27:14;0.30;99.90
5675;DHT22;2860;54.284;10.158;2023-12-07T04:29:40;0.30;99.90
5675;DHT22;2860;54.284;10.158;2023-12-07T04:32:07;0.30;99.90
5675;DHT22;2860;54.284;10.158;2023-12-07T04:34:32;0.30;99.90
5675;DHT22;2860;54.284;10.158;2023-12-07T04:36:58;0.30;99.90
5675;DHT22;2860;54.284;10.158;2023-12-07T04:39:23;0.30;99.90
5675;DHT22;2860;54.284;10.158;2023-12-07T04:41:49;0.30;99.90
5675;DHT22;2860;54.284;10.158;2023-12-07T04:44:14;0.30;99.90
5675;DHT22;2860;54.284;10.158;2023-12-07T04:46:41;0.30;99.90
5675;DHT22;2860;54.284;10.158;2023-12-07T04:49:07;0.30;99.90
5675;DHT22;2860;54.284;10.158;2023-12-07T04:51:33;0.30;99.90
5675;DHT22;2860;54.284;10.158;2023-12-07T04:53:58;0.30;99.90
5675;DHT22;2860;54.284;10.158;2023-12-07T04:56:24;0.30;99.90
5675;DHT22;2860;54.284;10.158;2023-12-07T04:58:49;0.30;99.90
5675;DHT22;2860;54.284;10.158;2023-12-07T05:01:15;0.30;99.90
5675;DHT22;2860;54.284;10.158;2023-12-07T05:03:40;0.30;99.90
5675;DHT22;2860;54.284;10.158;2023-12-07T05:06:06;0.30;99.90
5675;DHT22;2860;54.284;10.158;2023-12-07T05:08:33;0.30;99.90
5675;DHT22;2860;54.284;10.158;2023-12-07T05:10:58;0.30;99.90
5675;DHT22;2860;54.284;10.158;2023-12-07T05:13:24;0.30;99.90
5675;DHT22;2860;54.284;10.158;2023-12-07T05:15:49;0.30;99.90
5675;DHT22;2860;54.284;10.158;2023-12-07T05:18:15;0.30;99.90
5675;DHT22;2860;54.284;10.158;2023-12-07T05:20:40;0.30;99.90
5675;DHT22;2860;54.284;10.158;2023-12-07T05:23:06;0.30;99.90
5675;DHT22;2860;54.284;10.158;2023-12-07T05:25:32;0.30;99.90
5675;DHT22;2860;54.284;10.158;2023-12-07T05:27:58;0.30;99.90
5675;DHT22;2860;54.284;10.158;2023-12-07T05:30:23;0.30;99.90
5675;DHT22;2860;54.284;10.158;2023-12-07T05:32:49;0.30;99.90
5675;DHT22;2860;54.284;10.158;2023-12-07T05:35:15;0.30;99.90
5675;DHT22;2860;54.284;10.158;2023-12-07T05:37:41;0.20;99.90
5675;DHT22;2860;54.284;10.158;2023-12-07T05:40:07;0.20;99.90
5675;DHT22;2860;54.284;10.158;2023-12-07T05:42:33;0.20;99.90
5675;DHT22;2860;54.284;10.158;2023-12-07T05:44:59;0.30;99.90
5675;DHT22;2860;54.284;10.158;2023-12-07T05:47:25;0.30;99.90
5675;DHT22;2860;54.284;10.158;2023-12-07T05:49:51;0.30;99.90
5675;DHT22;2860;54.284;10.158;2023-12-07T05:52:17;0.30;99.90
5675;DHT22;2860;54.284;10.158;2023-12-07T05:54:42;0.30;99.90
5675;DHT22;2860;54.284;10.158;2023-12-07T05:57:08;0.30;99.90
5675;DHT22;2860;54.284;10.158;2023-12-07T05:59:37;0.30;99.90
5675;DHT22;2860;54.284;10.158;2023-12-07T06:02:07;0.30;99.90
5675;DHT22;2860;54.284;10.158;2023-12-07T06:04:32;0.30;99.90
5675;DHT22;2860;54.284;10.158;2023-12-07T06:06:58;0.30;99.90
5675;DHT22;2860;54.284;10.158;2023-12-07T06:09:23;0.30;99.90
5675;DHT22;2860;54.284;10.158;2023-12-07T06:11:49;0.30;99.90
5675;DHT22;2860;54.284;10.158;2023-12-07T06:14:14;0.30;99.90
5675;DHT22;2860;54.284;10.158;2023-12-07T06:16:40;0.30;99.90
5675;DHT22;2860;54.284;10.158;2023-12-07T06:19:05;0.30;99.90
5675;DHT22;2860;54.284;10.158;2023-12-07T06:21:31;0.30;99.90
5675;DHT22;2860;54.284;10.158;2023-12-07T06:23:57;0.30;99.90
5675;DHT22;2860;54.284;10.158;2023-12-07T06:26:24;0.30;99.90
5675;DHT22;2860;54.284;10.158;2023-12-07T06:28:50;0.30;99.90
5675;DHT22;2860;54.284;10.158;2023-12-07T06:31:15;0.40;99.90
5675;DHT22;2860;54.284;10.158;2023-12-07T06:33:45;0.40;99.90
5675;DHT22;2860;54.284;10.158;2023-12-07T06:36:11;0.30;99.90
5675;DHT22;2860;54.284;10.158;2023-12-07T06:38:36;0.30;99.90
5675;DHT22;2860;54.284;10.158;2023-12-07T06:41:02;0.30;99.90
5675;DHT22;2860;54.284;10.158;2023-12-07T06:43:27;0.40;99.90
5675;DHT22;2860;54.284;10.158;2023-12-07T06:45:53;0.40;99.90
5675;DHT22;2860;54.284;10.158;2023-12-07T06:48:18;0.40;99.90
5675;DHT22;2860;54.284;10.158;2023-12-07T06:50:44;0.40;99.90
5675;DHT22;2860;54.284;10.158;2023-12-07T06:53:09;0.30;99.90
5675;DHT22;2860;54.284;10.158;2023-12-07T06:55:35;0.40;99.90
5675;DHT22;2860;54.284;10.158;2023-12-07T06:58:00;0.30;99.90
5675;DHT22;2860;54.284;10.158;2023-12-07T07:00:26;0.40;99.90
5675;DHT22;2860;54.284;10.158;2023-12-07T07:02:51;0.30;99.90
5675;DHT22;2860;54.284;10.158;2023-12-07T07:05:17;0.40;99.90
5675;DHT22;2860;54.284;10.158;2023-12-07T07:07:42;0.30;99.90
5675;DHT22;2860;54.284;10.158;2023-12-07T07:10:08;0.40;99.90
5675;DHT22;2860;54.284;10.158;2023-12-07T07:12:35;0.30;99.90
5675;DHT22;2860;54.284;10.158;2023-12-07T07:15:01;0.30;99.90
5675;DHT22;2860;54.284;10.158;2023-12-07T07:17:26;0.30;99.90
5675;DHT22;2860;54.284;10.158;2023-12-07T07:19:54;0.30;99.90
5675;DHT22;2860;54.284;10.158;2023-12-07T07:22:20;0.30;99.90
5675;DHT22;2860;54.284;10.158;2023-12-07T07:24:47;0.30;99.90
5675;DHT22;2860;54.284;10.158;2023-12-07T07:27:12;0.30;99.90
5675;DHT22;2860;54.284;10.158;2023-12-07T07:29:38;0.30;99.90
5675;DHT22;2860;54.284;10.158;2023-12-07T07:32:05;0.30;99.90
5675;DHT22;2860;54.284;10.158;2023-12-07T07:34:31;0.30;99.90
5675;DHT22;2860;54.284;10.158;2023-12-07T07:36:56;0.30;99.90
5675;DHT22;2860;54.284;10.158;2023-12-07T07:39:22;0.30;99.90
5675;DHT22;2860;54.284;10.158;2023-12-07T07:41:47;0.30;99.90
5675;DHT22;2860;54.284;10.158;2023-12-07T07:44:13;0.30;99.90
5675;DHT22;2860;54.284;10.158;2023-12-07T07:46:40;0.30;99.90
5675;DHT22;2860;54.284;10.158;2023-12-07T07:49:06;0.30;99.90
5675;DHT22;2860;54.284;10.158;2023-12-07T07:51:32;0.30;99.90
5675;DHT22;2860;54.284;10.158;2023-12-07T07:53:59;0.30;99.90
5675;DHT22;2860;54.284;10.158;2023-12-07T07:56:24;0.30;99.90
5675;DHT22;2860;54.284;10.158;2023-12-07T07:58:50;0.40;99.90
5675;DHT22;2860;54.284;10.158;2023-12-07T08:01:15;0.40;99.90
5675;DHT22;2860;54.284;10.158;2023-12-07T08:03:41;0.40;99.90
5675;DHT22;2860;54.284;10.158;2023-12-07T08:06:07;0.40;99.90
5675;DHT22;2860;54.284;10.158;2023-12-07T08:08:32;0.40;99.90
5675;DHT22;2860;54.284;10.158;2023-12-07T08:10:58;0.40;99.90
5675;DHT22;2860;54.284;10.158;2023-12-07T08:13:23;0.40;99.90
5675;DHT22;2860;54.284;10.158;2023-12-07T08:15:49;0.40;99.90
5675;DHT22;2860;54.284;10.158;2023-12-07T08:18:14;0.40;99.90
5675;DHT22;2860;54.284;10.158;2023-12-07T08:20:40;0.50;99.90
5675;DHT22;2860;54.284;10.158;2023-12-07T08:23:05;0.50;99.90
5675;DHT22;2860;54.284;10.158;2023-12-07T08:25:31;0.50;99.90
5675;DHT22;2860;54.284;10.158;2023-12-07T08:27:57;0.50;99.90
5675;DHT22;2860;54.284;10.158;2023-12-07T08:30:23;0.50;99.90
5675;DHT22;2860;54.284;10.158;2023-12-07T08:32:48;0.50;99.90
5675;DHT22;2860;54.284;10.158;2023-12-07T08:35:14;0.50;99.90
5675;DHT22;2860;54.284;10.158;2023-12-07T08:37:39;0.50;99.90
5675;DHT22;2860;54.284;10.158;2023-12-07T08:40:06;0.50;99.90
5675;DHT22;2860;54.284;10.158;2023-12-07T08:42:31;0.50;99.90
5675;DHT22;2860;54.284;10.158;2023-12-07T08:44:57;0.50;99.90
5675;DHT22;2860;54.284;10.158;2023-12-07T08:47:23;0.60;99.90
5675;DHT22;2860;54.284;10.158;2023-12-07T08:49:49;0.60;99.90
5675;DHT22;2860;54.284;10.158;2023-12-07T08:52:16;0.60;99.90
5675;DHT22;2860;54.284;10.158;2023-12-07T08:54:43;0.60;99.90
5675;DHT22;2860;54.284;10.158;2023-12-07T08:57:09;0.60;99.90
5675;DHT22;2860;54.284;10.158;2023-12-07T08:59:34;0.60;99.90
5675;DHT22;2860;54.284;10.158;2023-12-07T09:02:00;0.70;99.90
5675;DHT22;2860;54.284;10.158;2023-12-07T09:04:26;0.70;99.90
5675;DHT22;2860;54.284;10.158;2023-12-07T09:06:52;0.70;99.90
5675;DHT22;2860;54.284;10.158;2023-12-07T09:09:19;0.70;99.90
5675;DHT22;2860;54.284;10.158;2023-12-07T09:11:45;0.80;99.90
5675;DHT22;2860;54.284;10.158;2023-12-07T09:14:11;0.80;99.90
5675;DHT22;2860;54.284;10.158;2023-12-07T09:16:45;0.90;99.90
5675;DHT22;2860;54.284;10.158;2023-12-07T09:19:12;0.90;99.90
5675;DHT22;2860;54.284;10.158;2023-12-07T09:21:39;1.00;99.90
5675;DHT22;2860;54.284;10.158;2023-12-07T09:24:05;1.00;99.90
5675;DHT22;2860;54.284;10.158;2023-12-07T09:26:32;0.90;99.90
5675;DHT22;2860;54.284;10.158;2023-12-07T09:28:57;1.00;99.90
5675;DHT22;2860;54.284;10.158;2023-12-07T09:31:23;1.00;99.90
5675;DHT22;2860;54.284;10.158;2023-12-07T09:33:48;1.00;99.90
5675;DHT22;2860;54.284;10.158;2023-12-07T09:36:17;1.10;99.90
5675;DHT22;2860;54.284;10.158;2023-12-07T09:38:44;1.10;99.90
5675;DHT22;2860;54.284;10.158;2023-12-07T09:41:09;1.20;99.90
5675;DHT22;2860;54.284;10.158;2023-12-07T09:43:35;1.20;99.90
5675;DHT22;2860;54.284;10.158;2023-12-07T09:46:01;1.30;99.90
5675;DHT22;2860;54.284;10.158;2023-12-07T09:48:26;1.30;99.90
5675;DHT22;2860;54.284;10.158;2023-12-07T09:50:53;1.40;99.90
5675;DHT22;2860;54.284;10.158;2023-12-07T09:53:20;1.50;99.90
5675;DHT22;2860;54.284;10.158;2023-12-07T09:55:46;1.50;99.90
5675;DHT22;2860;54.284;10.158;2023-12-07T09:58:12;1.60;99.90
5675;DHT22;2860;54.284;10.158;2023-12-07T10:00:38;1.60;99.90
5675;DHT22;2860;54.284;10.158;2023-12-07T10:03:05;1.60;99.90
5675;DHT22;2860;54.284;10.158;2023-12-07T10:05:33;1.60;99.90
5675;DHT22;2860;54.284;10.158;2023-12-07T10:07:59;1.70;99.90
5675;DHT22;2860;54.284;10.158;2023-12-07T10:10:25;1.70;99.90
5675;DHT22;2860;54.284;10.158;2023-12-07T10:12:56;1.70;99.90
5675;DHT22;2860;54.284;10.158;2023-12-07T10:15:24;1.70;99.90
5675;DHT22;2860;54.284;10.158;2023-12-07T10:17:58;1.60;99.90
5675;DHT22;2860;54.284;10.158;2023-12-07T10:20:27;1.60;99.90
5675;DHT22;2860;54.284;10.158;2023-12-07T10:23:07;1.60;99.90
5675;DHT22;2860;54.284;10.158;2023-12-07T10:25:37;1.40;99.90
5675;DHT22;2860;54.284;10.158;2023-12-07T10:28:03;1.40;99.90
5675;DHT22;2860;54.284;10.158;2023-12-07T10:30:33;1.40;99.90
5675;DHT22;2860;54.284;10.158;2023-12-07T10:32:59;1.40;99.90
5675;DHT22;2860;54.284;10.158;2023-12-07T10:35:24;1.30;99.90
5675;DHT22;2860;54.284;10.158;2023-12-07T10:37:50;1.30;99.90
5675;DHT22;2860;54.284;10.158;2023-12-07T10:40:16;1.30;99.90
5675;DHT22;2860;54.284;10.158;2023-12-07T10:42:42;1.40;99.90
5675;DHT22;2860;54.284;10.158;2023-12-07T10:45:11;1.40;99.90
5675;DHT22;2860;54.284;10.158;2023-12-07T10:47:39;1.40;99.90
5675;DHT22;2860;54.284;10.158;2023-12-07T10:50:07;1.40;99.90
5675;DHT22;2860;54.284;10.158;2023-12-07T10:52:38;1.40;99.90
5675;DHT22;2860;54.284;10.158;2023-12-07T10:55:10;1.40;99.90
5675;DHT22;2860;54.284;10.158;2023-12-07T10:57:37;1.50;99.90
5675;DHT22;2860;54.284;10.158;2023-12-07T11:00:06;1.40;99.90
5675;DHT22;2860;54.284;10.158;2023-12-07T11:02:33;1.50;99.90
5675;DHT22;2860;54.284;10.158;2023-12-07T11:04:59;1.50;99.90
5675;DHT22;2860;54.284;10.158;2023-12-07T11:07:32;1.50;99.90
5675;DHT22;2860;54.284;10.158;2023-12-07T11:10:05;1.60;99.90
5675;DHT22;2860;54.284;10.158;2023-12-07T11:12:54;1.60;99.90
5675;DHT22;2860;54.284;10.158;2023-12-07T11:15:21;1.60;99.90
5675;DHT22;2860;54.284;10.158;2023-12-07T11:17:51;1.60;99.90
5675;DHT22;2860;54.284;10.158;2023-12-07T11:20:22;1.70;99.90
5675;DHT22;2860;54.284;10.158;2023-12-07T11:22:47;1.70;99.90
5675;DHT22;2860;54.284;10.158;2023-12-07T11:25:15;1.80;99.90
5675;DHT22;2860;54.284;10.158;2023-12-07T11:27:40;1.80;99.90
5675;DHT22;2860;54.284;10.158;2023-12-07T11:30:13;1.80;99.90
5675;DHT22;2860;54.284;10.158;2023-12-07T11:32:39;1.80;99.90
5675;DHT22;2860;54.284;10.158;2023-12-07T11:35:05;1.90;99.90
5675;DHT22;2860;54.284;10.158;2023-12-07T11:38:00;1.90;99.90
5675;DHT22;2860;54.284;10.158;2023-12-07T11:40:29;1.90;99.90
5675;DHT22;2860;54.284;10.158;2023-12-07T11:42:55;1.90;99.90
5675;DHT22;2860;54.284;10.158;2023-12-07T11:45:46;1.90;99.90
5675;DHT22;2860;54.284;10.158;2023-12-07T11:48:14;1.90;99.90
5675;DHT22;2860;54.284;10.158;2023-12-07T11:50:57;1.90;99.90
5675;DHT22;2860;54.284;10.158;2023-12-07T11:53:34;2.00;99.90
5675;DHT22;2860;54.284;10.158;2023-12-07T11:56:05;1.90;99.90
5675;DHT22;2860;54.284;10.158;2023-12-07T11:58:44;1.90;99.90
5675;DHT22;2860;54.284;10.158;2023-12-07T12:01:11;2.00;99.90
5675;DHT22;2860;54.284;10.158;2023-12-07T12:03:36;2.00;99.90
5675;DHT22;2860;54.284;10.158;2023-12-07T12:06:04;2.00;99.90
5675;DHT22;2860;54.284;10.158;2023-12-07T12:08:31;2.00;99.90
5675;DHT22;2860;54.284;10.158;2023-12-07T12:10:56;1.90;99.90
5675;DHT22;2860;54.284;10.158;2023-12-07T12:13:34;1.90;99.90
5675;DHT22;2860;54.284;10.158;2023-12-07T12:16:00;1.90;99.90
5675;DHT22;2860;54.284;10.158;2023-12-07T12:18:27;1.90;99.90
5675;DHT22;2860;54.284;10.158;2023-12-07T12:20:53;1.90;99.90
5675;DHT22;2860;54.284;10.158;2023-12-07T12:23:19;1.90;99.90
5675;DHT22;2860;54.284;10.158;2023-12-07T12:25:45;1.90;99.90
5675;DHT22;2860;54.284;10.158;2023-12-07T12:28:15;1.90;99.90
5675;DHT22;2860;54.284;10.158;2023-12-07T12:30:41;1.90;99.90
5675;DHT22;2860;54.284;10.158;2023-12-07T12:33:07;1.90;99.90
5675;DHT22;2860;54.284;10.158;2023-12-07T12:35:33;1.90;99.90
5675;DHT22;2860;54.284;10.158;2023-12-07T12:37:58;1.90;99.90
5675;DHT22;2860;54.284;10.158;2023-12-07T12:40:27;1.80;99.90
5675;DHT22;2860;54.284;10.158;2023-12-07T12:42:54;1.80;99.90
5675;DHT22;2860;54.284;10.158;2023-12-07T12:45:20;1.80;99.90
5675;DHT22;2860;54.284;10.158;2023-12-07T12:47:46;1.80;99.90
5675;DHT22;2860;54.284;10.158;2023-12-07T12:50:38;1.90;99.90
5675;DHT22;2860;54.284;10.158;2023-12-07T12:53:06;1.90;99.90
5675;DHT22;2860;54.284;10.158;2023-12-07T12:55:36;1.90;99.90
5675;DHT22;2860;54.284;10.158;2023-12-07T12:58:02;1.90;99.90
5675;DHT22;2860;54.284;10.158;2023-12-07T13:00:30;2.00;99.90
5675;DHT22;2860;54.284;10.158;2023-12-07T13:02:55;2.10;99.90
5675;DHT22;2860;54.284;10.158;2023-12-07T13:05:21;2.20;99.90
5675;DHT22;2860;54.284;10.158;2023-12-07T13:07:48;2.20;99.90
5675;DHT22;2860;54.284;10.158;2023-12-07T13:10:15;2.30;99.90
5675;DHT22;2860;54.284;10.158;2023-12-07T13:12:40;2.40;99.90
5675;DHT22;2860;54.284;10.158;2023-12-07T13:15:06;2.50;99.90
5675;DHT22;2860;54.284;10.158;2023-12-07T13:17:32;2.50;99.90
5675;DHT22;2860;54.284;10.158;2023-12-07T13:19:58;2.50;99.90
5675;DHT22;2860;54.284;10.158;2023-12-07T13:22:23;2.50;99.90
5675;DHT22;2860;54.284;10.158;2023-12-07T13:24:49;2.50;99.90
5675;DHT22;2860;54.284;10.158;2023-12-07T13:27:17;2.50;99.90
5675;DHT22;2860;54.284;10.158;2023-12-07T13:29:43;2.50;99.90
5675;DHT22;2860;54.284;10.158;2023-12-07T13:32:10;2.40;99.90
5675;DHT22;2860;54.284;10.158;2023-12-07T13:34:35;2.40;99.90
5675;DHT22;2860;54.284;10.158;2023-12-07T13:37:01;2.30;99.90
5675;DHT22;2860;54.284;10.158;2023-12-07T13:39:27;2.30;99.90
5675;DHT22;2860;54.284;10.158;2023-12-07T13:41:54;2.20;99.90
5675;DHT22;2860;54.284;10.158;2023-12-07T13:44:19;2.20;99.90
5675;DHT22;2860;54.284;10.158;2023-12-07T13:46:45;2.10;99.90
5675;DHT22;2860;54.284;10.158;2023-12-07T13:49:11;2.10;99.90
5675;DHT22;2860;54.284;10.158;2023-12-07T13:51:37;2.10;99.90
5675;DHT22;2860;54.284;10.158;2023-12-07T13:54:03;2.10;99.90
5675;DHT22;2860;54.284;10.158;2023-12-07T13:56:29;2.10;99.90
5675;DHT22;2860;54.284;10.158;2023-12-07T13:58:54;2.10;99.90
5675;DHT22;2860;54.284;10.158;2023-12-07T14:01:20;2.20;99.90
5675;DHT22;2860;54.284;10.158;2023-12-07T14:03:46;2.10;99.90
5675;DHT22;2860;54.284;10.158;2023-12-07T14:06:19;2.10;99.90
5675;DHT22;2860;54.284;10.158;2023-12-07T14:08:46;2.00;99.90
5675;DHT22;2860;54.284;10.158;2023-12-07T14:11:11;1.90;99.90
5675;DHT22;2860;54.284;10.158;2023-12-07T14:13:38;1.90;99.90
5675;DHT22;2860;54.284;10.158;2023-12-07T14:16:05;1.80;99.90
5675;DHT22;2860;54.284;10.158;2023-12-07T14:18:34;1.80;99.90
5675;DHT22;2860;54.284;10.158;2023-12-07T14:20:59;1.80;99.90
5675;DHT22;2860;54.284;10.158;2023-12-07T14:23:25;1.70;99.90
5675;DHT22;2860;54.284;10.158;2023-12-07T14:25:51;1.60;99.90
5675;DHT22;2860;54.284;10.158;2023-12-07T14:28:17;1.50;99.90
5675;DHT22;2860;54.284;10.158;2023-12-07T14:30:43;1.50;99.90
5675;DHT22;2860;54.284;10.158;2023-12-07T14:33:08;1.40;99.90
5675;DHT22;2860;54.284;10.158;2023-12-07T14:35:34;1.40;99.90
5675;DHT22;2860;54.284;10.158;2023-12-07T14:37:59;1.30;99.90
5675;DHT22;2860;54.284;10.158;2023-12-07T14:40:25;1.30;99.90
5675;DHT22;2860;54.284;10.158;2023-12-07T14:42:50;1.20;99.90
5675;DHT22;2860;54.284;10.158;2023-12-07T14:45:16;1.20;99.90
5675;DHT22;2860;54.284;10.158;2023-12-07T14:47:41;1.20;99.90
5675;DHT22;2860;54.284;10.158;2023-12-07T14:50:07;1.10;99.90
5675;DHT22;2860;54.284;10.158;2023-12-07T14:52:33;1.10;99.90
5675;DHT22;2860;54.284;10.158;2023-12-07T14:54:59;1.10;99.90
5675;DHT22;2860;54.284;10.158;2023-12-07T14:57:25;1.00;99.90
5675;DHT22;2860;54.284;10.158;2023-12-07T14:59:50;1.00;99.90
5675;DHT22;2860;54.284;10.158;2023-12-07T15:02:18;0.90;99.90
5675;DHT22;2860;54.284;10.158;2023-12-07T15:04:44;0.90;99.90
5675;DHT22;2860;54.284;10.158;2023-12-07T15:07:09;0.80;99.90
5675;DHT22;2860;54.284;10.158;2023-12-07T15:09:35;0.80;99.90
5675;DHT22;2860;54.284;10.158;2023-12-07T15:12:02;0.80;99.90
5675;DHT22;2860;54.284;10.158;2023-12-07T15:14:28;0.70;99.90
5675;DHT22;2860;54.284;10.158;2023-12-07T15:16:54;0.70;99.90
5675;DHT22;2860;54.284;10.158;2023-12-07T15:19:20;0.70;99.90
5675;DHT22;2860;54.284;10.158;2023-12-07T15:21:45;0.70;99.90
5675;DHT22;2860;54.284;10.158;2023-12-07T15:24:10;0.70;99.90
5675;DHT22;2860;54.284;10.158;2023-12-07T15:26:36;0.80;99.90
5675;DHT22;2860;54.284;10.158;2023-12-07T15:29:01;0.70;99.90
5675;DHT22;2860;54.284;10.158;2023-12-07T15:31:29;0.70;99.90
5675;DHT22;2860;54.284;10.158;2023-12-07T15:33:54;0.70;99.90
5675;DHT22;2860;54.284;10.158;2023-12-07T15:36:20;0.70;99.90
5675;DHT22;2860;54.284;10.158;2023-12-07T15:38:45;0.70;99.90
5675;DHT22;2860;54.284;10.158;2023-12-07T15:41:11;0.70;99.90
5675;DHT22;2860;54.284;10.158;2023-12-07T15:43:36;0.70;99.90
5675;DHT22;2860;54.284;10.158;2023-12-07T15:46:02;0.70;99.90
5675;DHT22;2860;54.284;10.158;2023-12-07T15:48:28;0.70;99.90
5675;DHT22;2860;54.284;10.158;2023-12-07T15:50:54;0.60;99.90
5675;DHT22;2860;54.284;10.158;2023-12-07T15:53:20;0.60;99.90
5675;DHT22;2860;54.284;10.158;2023-12-07T15:55:46;0.60;99.90
5675;DHT22;2860;54.284;10.158;2023-12-07T15:58:12;0.50;99.90